createdAt,value
2023-01-03T00:02:01.912Z,6.89
2023-01-03T00:05:08.520Z,6.86
2023-01-03T00:08:11.921Z,6.90
2023-01-03T00:11:18.445Z,6.74
2023-01-03T00:14:27.466Z,6.74
2023-01-03T00:17:52.753Z,6.66
2023-01-03T00:20:55.826Z,6.64
2023-01-03T00:23:59.527Z,6.53
2023-01-03T00:27:05.347Z,6.52
2023-01-03T00:30:09.242Z,6.49
2023-01-03T00:33:12.318Z,6.45
2023-01-03T00:36:15.983Z,6.37
2023-01-03T00:39:21.065Z,6.25
2023-01-03T00:43:02.886Z,6.24
2023-01-03T00:46:06.815Z,6.15
2023-01-03T00:49:11.133Z,6.14
2023-01-03T00:52:34.266Z,6.11
2023-01-03T00:55:37.857Z,6.12
2023-01-03T00:58:41.816Z,6.03
2023-01-03T01:01:53.854Z,5.94
2023-01-03T01:05:19.189Z,6.01
2023-01-03T01:08:22.553Z,5.86
2023-01-03T01:11:27.829Z,5.85
2023-01-03T01:14:51.501Z,5.88
2023-01-03T01:17:54.800Z,5.90
2023-01-03T01:20:58.809Z,5.95
2023-01-03T01:24:02.248Z,5.89
2023-01-03T01:27:10.186Z,5.88
2023-01-03T01:30:14.856Z,5.77
2023-01-03T01:33:18.363Z,5.80
2023-01-03T01:36:29.995Z,5.76
2023-01-03T01:39:33.221Z,5.85
2023-01-03T01:42:55.237Z,5.85
2023-01-03T01:46:04.990Z,5.88
2023-01-03T01:49:28.324Z,5.87
2023-01-03T01:52:35.920Z,5.86
2023-01-03T01:55:43.457Z,5.88
2023-01-03T01:58:50.514Z,5.87
2023-01-03T02:01:53.829Z,5.84
2023-01-03T02:05:00.490Z,5.78
2023-01-03T02:08:04.192Z,5.70
2023-01-03T02:11:26.349Z,5.67
2023-01-03T02:15:11.402Z,5.64
2023-01-03T02:18:47.222Z,5.70
2023-01-03T02:21:54.580Z,5.63
2023-01-03T02:25:39.499Z,5.65
2023-01-03T02:28:58.668Z,5.40
2023-01-03T02:32:08.149Z,5.35
2023-01-03T02:35:31.933Z,5.48
2023-01-03T02:38:35.320Z,5.46
2023-01-03T02:41:47.465Z,5.44
2023-01-03T02:45:03.621Z,5.47
2023-01-03T02:48:17.319Z,5.39
2023-01-03T02:51:46.160Z,5.40
2023-01-03T02:55:19.330Z,5.41
2023-01-03T02:58:29.638Z,5.38
2023-01-03T03:01:54.684Z,5.33
2023-01-03T03:05:02.946Z,5.38
2023-01-03T03:08:10.237Z,5.46
2023-01-03T03:11:33.680Z,5.52
2023-01-03T03:14:46.790Z,5.59
2023-01-03T03:17:59.607Z,5.57
2023-01-03T03:21:28.595Z,5.43
2023-01-03T03:24:50.597Z,5.24
2023-01-03T03:28:18.696Z,5.20
2023-01-03T03:31:44.394Z,5.21
2023-01-03T03:35:11.110Z,5.21
2023-01-03T03:38:21.941Z,5.30
2023-01-03T03:42:01.913Z,5.37
2023-01-03T03:45:17.011Z,5.30
2023-01-03T03:49:06.556Z,5.21
2023-01-03T03:52:17.007Z,5.20
2023-01-03T03:55:50.809Z,5.04
2023-01-03T03:58:58.065Z,5.03
2023-01-03T04:02:05.414Z,4.97
2023-01-03T04:05:11.365Z,5.04
2023-01-03T04:08:16.287Z,5.01
2023-01-03T04:11:21.389Z,4.90
2023-01-03T04:14:25.150Z,5.05
2023-01-03T04:17:30.182Z,5.00
2023-01-03T04:20:33.700Z,5.06
2023-01-03T04:23:37.710Z,5.12
2023-01-03T04:26:46.934Z,5.15
2023-01-03T04:29:50.809Z,5.09
2023-01-03T04:32:56.784Z,5.05
2023-01-03T04:36:00.124Z,5.09
2023-01-03T04:39:03.575Z,5.10
2023-01-03T04:42:27.855Z,5.15
2023-01-03T04:45:31.074Z,5.08
2023-01-03T04:48:36.434Z,5.15
2023-01-03T04:51:42.578Z,5.08
2023-01-03T04:54:46.140Z,5.04
2023-01-03T04:57:49.689Z,5.04
2023-01-03T05:01:00.812Z,4.94
2023-01-03T05:04:06.219Z,4.93
2023-01-03T05:07:09.539Z,4.80
2023-01-03T05:10:12.997Z,4.67
2023-01-03T05:13:16.718Z,4.61
2023-01-03T05:16:20.261Z,4.66
2023-01-03T05:19:24.321Z,4.79
2023-01-03T05:22:46.200Z,4.84
2023-01-03T05:25:49.867Z,4.78
2023-01-03T05:28:54.624Z,4.79
2023-01-03T05:31:58.599Z,4.79
2023-01-03T05:35:05.633Z,4.79
2023-01-03T05:38:09.072Z,4.87
2023-01-03T05:41:50.728Z,4.94
2023-01-03T05:44:54.044Z,4.94
2023-01-03T05:47:59.250Z,4.87
2023-01-03T05:51:02.872Z,4.91
2023-01-03T05:54:07.082Z,4.86
2023-01-03T05:57:11.486Z,4.85
2023-01-03T06:00:15.383Z,4.82
2023-01-03T06:03:19.583Z,4.90
2023-01-03T06:06:23.504Z,4.92
2023-01-03T06:09:27.339Z,4.91
2023-01-03T06:12:37.257Z,4.91
2023-01-03T06:16:12.180Z,4.86
2023-01-03T07:15:55.274Z,4.48
2023-01-03T07:23:14.177Z,4.70
2023-01-03T07:56:48.478Z,6.52
2023-01-03T08:07:44.556Z,6.77
2023-01-03T08:15:06.653Z,6.97
2023-01-03T08:18:40.564Z,7.19
2023-01-03T08:21:43.156Z,7.33
2023-01-03T08:25:13.496Z,7.46
2023-01-03T08:28:36.607Z,7.62
2023-01-03T08:31:47.795Z,7.66
2023-01-03T08:35:27.413Z,7.65
2023-01-03T08:38:39.020Z,7.66
2023-01-03T08:41:54.587Z,7.94
2023-01-03T08:45:04.336Z,7.93
2023-01-03T08:48:11.242Z,7.96
2023-01-03T08:51:15.451Z,8.09
2023-01-03T08:54:20.736Z,8.19
2023-01-03T08:57:25.494Z,8.32
2023-01-03T09:00:30.169Z,8.47
2023-01-03T09:03:34.374Z,8.57
2023-01-03T09:06:40.378Z,8.66
2023-01-03T09:09:43.692Z,8.59
2023-01-03T09:12:47.260Z,8.72
2023-01-03T09:15:51.473Z,8.86
2023-01-03T09:18:54.365Z,8.98
2023-01-03T09:21:57.172Z,9.10
2023-01-03T09:25:00.057Z,9.30
2023-01-03T09:28:03.478Z,9.23
2023-01-03T09:31:09.624Z,9.20
2023-01-03T09:34:12.587Z,9.38
2023-01-03T09:37:15.870Z,9.48
2023-01-03T09:40:20.483Z,9.36
2023-01-03T09:43:29.372Z,9.56
2023-01-03T09:46:46.894Z,9.55
2023-01-03T09:50:26.755Z,9.53
2023-01-03T09:53:49.873Z,9.75
2023-01-03T09:57:11.935Z,9.88
2023-01-03T10:01:12.596Z,9.97
2023-01-03T10:04:21.478Z,10.15
2023-01-03T10:07:43.564Z,10.22
2023-01-03T10:10:51.453Z,10.43
2023-01-03T10:14:18.855Z,10.65
2023-01-03T10:17:57.697Z,10.88
2023-01-03T10:21:13.501Z,10.72
2023-01-03T10:24:24.400Z,10.94
2023-01-03T10:27:29.767Z,11.09
2023-01-03T10:30:41.938Z,11.27
2023-01-03T10:33:52.320Z,11.22
2023-01-03T10:36:57.634Z,11.17
2023-01-03T10:40:03.843Z,10.91
2023-01-03T10:43:28.629Z,10.55
2023-01-03T10:46:32.114Z,10.88
2023-01-03T10:49:35.540Z,10.97
2023-01-03T10:52:41.395Z,11.10
2023-01-03T10:55:50.955Z,11.16
2023-01-03T10:59:18.787Z,10.82
2023-01-03T11:02:23.860Z,10.60
2023-01-03T11:06:08.200Z,10.93
2023-01-03T11:09:12.367Z,10.86
2023-01-03T11:12:28.066Z,10.80
2023-01-03T11:15:38.380Z,10.98
2023-01-03T11:19:00.761Z,11.09
2023-01-03T11:22:37.571Z,11.34
2023-01-03T11:26:39.249Z,11.58
2023-01-03T11:30:07.392Z,11.39
2023-01-03T11:33:39.927Z,11.79
2023-01-03T11:36:59.272Z,11.56
2023-01-03T11:40:18.889Z,11.44
2023-01-03T11:43:31.527Z,10.99
2023-01-03T11:46:47.741Z,11.03
2023-01-03T11:50:00.380Z,10.90
2023-01-03T11:53:23.440Z,10.63
2023-01-03T11:56:36.330Z,11.04
2023-01-03T11:59:59.553Z,10.81
2023-01-03T12:03:32.717Z,10.88
2023-01-03T12:07:21.415Z,10.70
2023-01-03T12:10:59.668Z,10.88
2023-01-03T12:14:19.860Z,10.77
2023-01-03T12:17:29.636Z,11.05
2023-01-03T12:20:59.483Z,10.70
2023-01-03T12:24:43.301Z,10.80
2023-01-03T12:28:26.873Z,10.98
2023-01-03T12:31:47.429Z,11.04
2023-01-03T12:35:17.766Z,10.88
2023-01-03T12:38:30.823Z,10.74
2023-01-03T12:42:04.902Z,10.61
2023-01-03T12:45:07.998Z,10.54
2023-01-03T12:48:40.788Z,10.62
2023-01-03T12:51:44.177Z,10.36
2023-01-03T12:54:57.737Z,10.17
2023-01-03T12:58:27.325Z,10.20
2023-01-03T13:01:42.605Z,10.40
2023-01-03T13:05:35.447Z,10.35
2023-01-03T13:09:15.425Z,10.21
2023-01-03T13:12:31.074Z,10.37
2023-01-03T13:15:55.202Z,10.48
2023-01-03T13:19:23.011Z,10.39
2023-01-03T13:22:56.860Z,10.23
2023-01-03T13:26:06.316Z,10.36
2023-01-03T13:29:34.534Z,10.32
2023-01-03T13:33:12.272Z,10.38
2023-01-03T13:36:16.474Z,10.36
2023-01-03T13:39:50.546Z,10.35
2023-01-03T13:43:03.332Z,10.25
2023-01-03T13:46:25.917Z,10.07
2023-01-03T13:49:29.590Z,10.10
2023-01-03T13:52:56.799Z,9.79
2023-01-03T13:56:21.162Z,9.70
2023-01-03T13:59:35.655Z,9.67
2023-01-03T14:03:47.005Z,9.65
2023-01-03T14:06:59.561Z,9.70
2023-01-03T14:10:23.148Z,9.59
2023-01-03T14:13:44.153Z,9.57
2023-01-03T14:16:53.401Z,9.56
2023-01-03T14:20:08.107Z,9.49
2023-01-03T14:23:57.774Z,9.55
2023-01-03T14:26:43.756Z,9.44
2023-01-03T14:29:54.615Z,9.25
2023-01-03T14:33:02.541Z,9.28
2023-01-03T14:36:20.873Z,9.07
2023-01-03T14:42:33.590Z,9.10
2023-01-03T14:45:39.861Z,8.99
2023-01-03T14:48:46.742Z,8.93
2023-01-03T14:51:54.227Z,8.86
2023-01-03T14:55:04.528Z,8.83
2023-01-03T14:58:40.630Z,8.68
2023-01-03T15:01:46.744Z,8.70
2023-01-03T15:04:58.767Z,8.44
2023-01-03T15:08:24.346Z,8.53
2023-01-03T15:11:32.815Z,8.55
2023-01-03T15:14:39.600Z,8.37
2023-01-03T15:17:50.996Z,8.37
2023-01-03T15:20:55.680Z,8.27
2023-01-03T15:23:58.954Z,8.27
2023-01-03T15:27:21.568Z,8.23
2023-01-03T15:30:53.383Z,8.21
2023-01-03T15:34:05.264Z,8.14
2023-01-03T15:37:20.425Z,8.15
2023-01-03T15:40:28.979Z,8.11
2023-01-03T15:43:38.141Z,8.07
2023-01-03T15:46:50.009Z,7.97
2023-01-03T15:49:59.225Z,7.91
2023-01-03T15:53:04.195Z,7.83
2023-01-03T15:56:21.608Z,7.84
2023-01-03T15:59:27.658Z,7.82
2023-01-03T16:02:31.360Z,7.76
2023-01-03T16:05:39.866Z,7.70
2023-01-03T16:08:42.896Z,7.81
2023-01-03T16:11:46.265Z,7.72
2023-01-03T16:14:51.865Z,7.72
2023-01-03T16:18:21.231Z,7.67
2023-01-03T16:21:26.887Z,7.65
2023-01-03T16:24:30.179Z,7.67
2023-01-03T16:27:35.931Z,7.67
2023-01-03T16:30:42.515Z,7.59
2023-01-03T16:33:51.766Z,7.59
2023-01-03T16:36:54.995Z,7.52
2023-01-03T16:40:02.801Z,7.45
2023-01-03T16:43:10.865Z,7.51
2023-01-03T16:46:15.176Z,7.47
2023-01-03T16:49:18.933Z,7.48
2023-01-03T16:52:29.335Z,7.47
2023-01-03T16:55:41.414Z,7.47
2023-01-03T16:58:44.271Z,7.47
2023-01-03T17:01:49.493Z,7.45
2023-01-03T17:04:53.339Z,7.35
2023-01-03T17:08:06.426Z,7.37
2023-01-03T17:11:09.529Z,7.38
2023-01-03T17:14:18.532Z,7.45
2023-01-03T17:17:24.513Z,7.53
2023-01-03T17:20:36.569Z,7.54
2023-01-03T17:23:48.021Z,7.51
2023-01-03T17:26:58.012Z,7.47
2023-01-03T17:30:24.654Z,7.42
2023-01-03T17:33:34.069Z,7.41
2023-01-03T17:36:38.113Z,7.40
2023-01-03T17:39:59.889Z,7.38
2023-01-03T17:43:02.871Z,7.36
2023-01-03T17:46:36.844Z,7.34
2023-01-03T17:49:41.775Z,7.37
2023-01-03T17:52:46.064Z,7.30
2023-01-03T17:55:52.266Z,7.34
2023-01-03T17:58:57.494Z,7.25
2023-01-03T18:02:03.055Z,7.22
2023-01-03T18:05:26.726Z,7.19
2023-01-03T18:08:52.915Z,7.22
2023-01-03T18:11:58.406Z,7.19
2023-01-03T18:15:02.607Z,7.19
2023-01-03T18:18:05.569Z,7.18
2023-01-03T18:21:30.532Z,7.18
2023-01-03T18:24:34.196Z,7.18
2023-01-03T18:27:41.227Z,7.16
2023-01-03T18:30:47.268Z,7.14
2023-01-03T18:34:04.671Z,7.18
2023-01-03T18:40:41.699Z,7.14
2023-01-03T18:43:44.845Z,7.13
2023-01-03T18:47:13.059Z,7.12
2023-01-03T18:50:22.134Z,7.16
2023-01-03T18:53:53.772Z,7.15
2023-01-03T18:56:57.094Z,7.26
2023-01-03T19:00:17.132Z,7.29
2023-01-03T19:03:26.017Z,7.33
2023-01-03T19:06:34.183Z,7.32
2023-01-03T19:09:38.313Z,7.31
2023-01-03T19:12:42.596Z,7.31
2023-01-03T19:15:49.128Z,7.27
2023-01-03T19:18:52.858Z,7.24
2023-01-03T19:21:55.603Z,7.20
2023-01-03T19:25:02.622Z,7.19
2023-01-03T19:28:27.643Z,7.30
2023-01-03T19:31:41.751Z,7.19
2023-01-03T19:34:45.122Z,7.13
2023-01-03T19:37:50.372Z,7.12
2023-01-03T19:40:53.605Z,7.08
2023-01-03T19:43:58.259Z,7.06
2023-01-03T19:47:02.100Z,7.06
2023-01-03T19:50:23.334Z,7.02
2023-01-03T19:53:26.653Z,6.98
2023-01-03T19:56:32.121Z,6.99
2023-01-03T19:59:42.057Z,6.95
2023-01-03T20:02:47.576Z,6.93
2023-01-03T20:05:53.072Z,6.95
2023-01-03T20:09:18.407Z,6.97
2023-01-03T20:12:26.707Z,6.96
2023-01-03T20:15:45.790Z,6.94
2023-01-03T20:18:54.723Z,6.94
2023-01-03T20:22:05.250Z,6.95
2023-01-03T20:25:36.651Z,6.93
2023-01-03T20:28:43.518Z,6.97
2023-01-03T20:32:21.117Z,6.91
2023-01-03T20:38:57.563Z,6.92
2023-01-03T20:42:04.032Z,6.89
2023-01-03T20:45:28.213Z,6.89
2023-01-03T20:48:31.727Z,6.90
2023-01-03T20:51:35.174Z,6.89
2023-01-03T20:55:02.297Z,6.91
2023-01-03T20:58:15.035Z,6.89
2023-01-03T21:01:18.412Z,6.84
2023-01-03T21:04:21.508Z,6.82
2023-01-03T21:08:11.557Z,6.82
2023-01-03T21:11:14.628Z,6.79
2023-01-03T21:14:18.419Z,6.78
2023-01-03T21:17:21.853Z,6.84
2023-01-03T21:20:27.949Z,6.78
2023-01-03T21:23:35.059Z,6.74
2023-01-03T21:26:38.388Z,6.76
2023-01-03T21:29:42.226Z,6.75
2023-01-03T21:32:46.879Z,6.75
2023-01-03T21:35:51.447Z,6.73
2023-01-03T21:38:55.829Z,6.74
2023-01-03T21:42:17.801Z,6.73
2023-01-03T21:45:22.412Z,6.73
2023-01-03T21:48:28.209Z,6.69
2023-01-03T21:51:38.485Z,6.75
2023-01-03T21:54:41.838Z,6.70
2023-01-03T21:57:46.288Z,6.66
2023-01-03T22:00:49.331Z,6.64
2023-01-03T22:04:11.423Z,6.68
2023-01-03T22:07:16.789Z,6.71
2023-01-03T22:10:20.248Z,6.66
2023-01-03T22:13:25.489Z,6.65
2023-01-03T22:16:28.608Z,6.68
2023-01-03T22:19:47.168Z,6.68
2023-01-03T22:22:51.858Z,6.65
2023-01-03T22:25:54.936Z,6.68
2023-01-03T22:28:58.207Z,6.58
2023-01-03T22:32:04.259Z,6.60
2023-01-03T22:35:15.585Z,6.61
2023-01-03T22:38:18.447Z,6.52
2023-01-03T22:41:22.202Z,6.53
2023-01-03T22:44:25.143Z,6.63
2023-01-03T22:47:28.431Z,6.61
2023-01-03T22:50:34.318Z,6.55
2023-01-03T22:53:39.300Z,6.58
2023-01-03T22:56:45.241Z,6.65
2023-01-03T22:59:50.676Z,6.59
2023-01-03T23:02:53.992Z,6.61
2023-01-03T23:05:58.314Z,6.61
2023-01-03T23:09:02.497Z,6.62
2023-01-03T23:12:26.371Z,6.57
2023-01-03T23:15:31.938Z,6.58
2023-01-03T23:18:35.348Z,6.46
2023-01-03T23:21:42.657Z,6.43
2023-01-03T23:24:58.456Z,6.36
2023-01-03T23:28:04.329Z,6.28
2023-01-03T23:31:09.641Z,6.22
2023-01-03T23:34:22.680Z,6.19
2023-01-03T23:37:29.135Z,6.12
2023-01-03T23:40:40.388Z,6.05
2023-01-03T23:43:44.600Z,5.86
2023-01-03T23:46:47.355Z,5.77
2023-01-03T23:49:55.114Z,5.65
2023-01-03T23:53:18.116Z,5.66
2023-01-03T23:56:24.175Z,5.75
2023-01-03T23:59:29.805Z,5.82
